Historyczne dane pomiarowe

Dodano dane terminowe – wersja testowa.

Dane z okresu 1951-2019

Wersja bazy: 1.34 [2019-03-16, lista zmian], aktualizacja planowana na 2019-04-15

Dane meteo z obszaru Polski uzyskane na podstawie danych udostępnionych przez Instytut Meteorologii i Gospodarki Wodnej – Państwowy Instytut Badawczy.

 

Wybierz Datę:    

       

TemperaturaWilgotnośćWiatrCiśnienieOpadyŚniegCzas trwania zjawisk
 Stacja t tx tn tng RH VA  wxwx mslp ppp RRR   cm mm wxwxwxwxwxwxwx
1994-08-14 15.7 20.2 13.1- 62.0- 5.3 6.0---- 0.0------------
1994-08-13 18.4 22.9 15.6- 79.3- 7.0 5.0---- 1.5------------
1994-08-12 17.5 20.2 13.5- 85.3- 6.3 5.3---- 0.0------------
1994-08-11 18.7 24.4 14.9- 87.5- 6.3 2.0---- 6.7------------
1994-08-10 20.2 26.5 14.6- 83.3- 1.7 1.7---- 0.0------------
1994-08-09 18.9 25.2 16.6- 88.8- 7.0 3.0---- 5.4------------
1994-08-08 22.5 31.0 17.2- 80.0- 5.7 1.0---- 15.5------------
1994-08-07 23.6 29.9 16.3- 64.5- 6.0 1.3---- 0.0------------
1994-08-06 22.2 32.7 10.4- 59.8- 2.3 1.3---- 0.0------------
1994-08-05 22.3 29.6 14.9- 64.0- 0.0 1.0---- 0.0------------
1994-08-04 22.5 28.8 16.4- 76.8- 0.0 2.0---- 4.2------------
1994-08-03 23.6 31.1 16.5- 63.8- 0.7 3.0---- 0.0------------
1994-08-02 24.6 33.2 14.5- 57.3- 0.0 0.0---- 0.0------------
1994-08-01 24.7 34.5 13.4- 61.5- 0.0 0.0---- 0.0------------
1994-07-31 24.3 33.2 13.3- 56.3- 0.7 0.7---- 0.0------------
1994-07-30 23.8 33.5 12.6- 52.0- 0.0 0.0---- 0.0------------
1994-07-29 22.7 32.7 11.2- 53.0- 0.0 0.0---- 0.0------------
1994-07-28 23.5 32.7 12.6- 54.3- 1.0 0.7---- 0.0------------
1994-07-27 23.4 32.6 11.9- 56.3- 1.7 0.0---- 0.0------------
1994-07-26 22.9 32.2 12.4- 56.0- 0.7 0.0---- 0.0------------
1994-07-25 22.1 31.7 12.1- 59.3- 2.7 0.7---- 0.0------------
1994-07-24 21.4 30.0 11.1- 57.8- 0.0 0.0---- 0.0------------
1994-07-23 20.8 28.0 9.4- 60.5- 1.0 1.0---- 0.0------------
1994-07-22 19.8 27.6 9.2- 58.0- 1.0 0.7---- 0.0------------
1994-07-21 18.8 25.9 8.6- 64.5- 0.0 0.7---- 0.0------------
1994-07-20 18.2 23.8 11.1- 62.5- 2.7 0.3---- 0.0------------
1994-07-19 19.1 25.7 14.2- 77.0- 5.3 1.0---- 0.0------------
1994-07-18 19.4 26.8 16.2- 86.3- 1.7 1.0---- 4.2------------
1994-07-17 22.2 28.9 15.2- 65.8- 3.0 1.0---- 8.6------------
1994-07-16 21.9 30.5 12.8- 73.8- 2.0 0.7---- 0.0------------
1994-07-15 20.9 28.4 12.7- 71.5- 3.7 1.3---- 0.0------------
1994-07-14 20.0 28.5 12.1- 72.0- 4.7 1.0---- 0.0------------
1994-07-13 19.5 27.6 10.7- 71.8- 3.7 1.3---- 0.0------------
1994-07-12 20.3 26.7 14.4- 68.8- 2.3 1.3---- 0.0------------
1994-07-11 16.8 23.0 12.2- 80.0- 5.0 2.3---- 0.0------------
1994-07-10 15.4 21.0 12.6- 86.8- 6.7 0.0---- 0.1------------
1994-07-09 14.6 19.5 7.4- 78.0- 7.0 2.7---- 4.7------------
1994-07-08 18.4 22.4 15.4- 65.0- 4.7 3.3---- 0.0------------
1994-07-07 18.0 26.2 9.7- 69.8- 5.0 1.0---- 0.5------------
1994-07-06 19.6 24.5 11.7- 64.3- 2.0 1.7---- 0.0------------
1994-07-05 19.6 27.6 10.2- 69.3- 4.0 1.3---- 1.2------------
1994-07-04 19.9 26.7 9.1- 66.0- 1.0 0.3---- 0.0------------
1994-07-03 17.9 25.6 7.3- 67.0- 0.0 0.0---- 0.0------------
1994-07-02 18.0 23.6 8.9- 66.3- 0.7 1.0---- 0.0------------
1994-07-01 19.7 23.0 9.9- 66.0- 2.3 1.7---- 0.0------------
1994-06-30 22.2 27.6 16.7- 82.0- 4.0 2.3---- 2.5------------
1994-06-29 22.9 30.2 14.7- 74.0- 1.0 0.3---- 0.0------------
1994-06-28 23.7 29.2 17.0- 75.5- 1.0 0.3---- 0.0------------
1994-06-27 24.3 30.7 14.9- 69.5- 4.0 1.3---- 0.0------------
1994-06-26 19.3 26.9 7.8- 61.0- 0.7 2.7---- 0.0------------
1994-06-25 15.2 22.2 4.1- 63.0- 0.0 0.7---- 0.0------------
1994-06-24 14.3 19.0 6.1- 60.3- 0.7 7.3---- 0.0------------
1994-06-23 17.8 22.6 16.5- 59.5- 3.7 10.7---- 0.0------------
1994-06-22 17.8 27.2 6.9- 71.0- 3.3 0.3---- 0.0------------
1994-06-21 15.1 20.3 6.8- 67.3- 2.7 1.7---- 0.0------------
1994-06-20 17.0 21.2 11.2- 71.5- 3.0 3.7---- 0.0------------
1994-06-19 17.8 24.0 11.4- 70.3- 5.3 3.0---- 0.0------------
1994-06-18 11.4 19.4 2.8- 79.3- 5.0 1.0---- 5.1------------
1994-06-17 11.7 14.9 9.4- 70.5- 5.3 5.3---- 0.0------------
1994-06-16 12.9 18.0 6.4- 73.8- 6.0 4.0---- 0.5------------
292.1 ms

 

Źródłem pochodzenia danych jest Instytut Meteorologii i Gospodarki Wodnej – Państwowy Instytut Badawczy. Dane Instytutu Meteorologii i Gospodarki Wodnej – Państwowego Instytutu Badawczego zostały przetworzone.

Dane źródłowe można odnaleźć na stronie https://dane.imgw.pl